createdAt,value
2023-12-30T00:02:59.207Z,100937.72
2023-12-30T00:06:02.205Z,100943.59
2023-12-30T00:09:06.141Z,100951.91
2023-12-30T00:12:10.307Z,100950.28
2023-12-30T00:15:13.117Z,100940.00
2023-12-30T00:18:16.455Z,100944.75
2023-12-30T00:21:20.390Z,100942.31
2023-12-30T00:24:24.404Z,100939.06
2023-12-30T00:27:27.472Z,100944.13
2023-12-30T00:30:30.189Z,100941.34
2023-12-30T00:33:33.286Z,100942.19
2023-12-30T00:36:35.981Z,100944.94
2023-12-30T00:39:42.713Z,100964.38
2023-12-30T00:42:45.381Z,100953.16
2023-12-30T00:45:49.599Z,100960.34
2023-12-30T00:48:57.261Z,100967.50
2023-12-30T00:52:01.147Z,100974.22
2023-12-30T00:55:05.943Z,100960.34
2023-12-30T00:58:09.710Z,100971.44
2023-12-30T01:01:12.386Z,100979.28
2023-12-30T01:04:15.101Z,100970.47
2023-12-30T01:07:17.896Z,100966.88
2023-12-30T01:10:22.120Z,100974.41
2023-12-30T01:13:24.871Z,100970.81
2023-12-30T01:16:27.653Z,100968.38
2023-12-30T01:19:30.385Z,100983.06
2023-12-30T01:22:33.079Z,100976.22
2023-12-30T01:25:39.193Z,100980.13
2023-12-30T01:28:41.901Z,100982.09
2023-12-30T01:31:44.575Z,100986.81
2023-12-30T01:34:47.385Z,100989.13
2023-12-30T01:37:50.053Z,101004.66
2023-12-30T01:40:56.556Z,100999.75
2023-12-30T01:43:59.439Z,101002.53
2023-12-30T01:47:02.483Z,101012.00
2023-12-30T01:50:06.275Z,101006.44
2023-12-30T01:53:08.958Z,101006.00
2023-12-30T01:56:12.963Z,101019.88
2023-12-30T01:59:15.691Z,101028.50
2023-12-30T02:02:18.401Z,101024.91
2023-12-30T02:05:21.271Z,101033.25
2023-12-30T02:08:23.963Z,101028.84
2023-12-30T02:11:27.980Z,101031.63
2023-12-30T02:14:31.625Z,101029.97
2023-12-30T02:17:34.406Z,101023.63
2023-12-30T02:20:37.286Z,101031.63
2023-12-30T02:23:41.459Z,101034.72
2023-12-30T02:26:44.073Z,101043.84
2023-12-30T02:29:46.850Z,101041.75
2023-12-30T02:32:49.560Z,101054.00
2023-12-30T02:35:52.257Z,101050.41
2023-12-30T02:38:57.492Z,101052.38
2023-12-30T02:42:00.154Z,101045.19
2023-12-30T02:45:02.815Z,101050.28
2023-12-30T02:48:06.544Z,101055.00
2023-12-30T02:51:09.172Z,101050.28
2023-12-30T02:54:13.136Z,101054.19
2023-12-30T02:57:15.741Z,101053.22
2023-12-30T03:00:19.522Z,101049.28
2023-12-30T03:03:22.326Z,101052.56
2023-12-30T03:06:25.112Z,101054.84
2023-12-30T03:09:29.044Z,101050.44
2023-12-30T03:12:31.895Z,101051.59
2023-12-30T03:15:34.575Z,101065.47
2023-12-30T03:18:37.261Z,101073.78
2023-12-30T03:21:40.033Z,101071.03
2023-12-30T03:24:43.953Z,101077.72
2023-12-30T03:27:46.674Z,101072.16
2023-12-30T03:30:49.346Z,101069.38
2023-12-30T03:33:52.470Z,101074.44
2023-12-30T03:36:55.316Z,101069.72
2023-12-30T03:39:59.357Z,101072.81
2023-12-30T03:43:02.699Z,101066.44
2023-12-30T03:46:05.821Z,101071.19
2023-12-30T03:49:08.527Z,101063.34
2023-12-30T03:52:11.719Z,101068.91
2023-12-30T03:55:15.878Z,101068.91
2023-12-30T03:58:18.582Z,101064.03
2023-12-30T04:01:21.275Z,101072.81
2023-12-30T04:04:23.951Z,101070.03
2023-12-30T04:07:26.600Z,101066.81
2023-12-30T04:10:30.729Z,101070.72
2023-12-30T04:13:33.727Z,101073.50
2023-12-30T04:16:36.424Z,101075.78
2023-12-30T04:19:39.126Z,101063.22
2023-12-30T04:22:41.791Z,101078.03
2023-12-30T04:25:45.853Z,101066.50
2023-12-30T04:28:48.533Z,101077.59
2023-12-30T04:31:51.223Z,101067.63
2023-12-30T04:34:53.999Z,101073.63
2023-12-30T04:37:56.712Z,101080.38
2023-12-30T04:41:00.720Z,101075.97
2023-12-30T04:44:03.612Z,101087.38
2023-12-30T04:47:07.425Z,101081.00
2023-12-30T04:50:10.626Z,101087.38
2023-12-30T04:53:13.643Z,101089.00
2023-12-30T04:56:18.004Z,101088.19
2023-12-30T04:59:20.806Z,101095.38
2023-12-30T05:02:23.424Z,101097.00
2023-12-30T05:05:26.062Z,101088.69
2023-12-30T05:08:28.724Z,101098.59
2023-12-30T05:11:32.732Z,101093.06
2023-12-30T05:14:35.444Z,101102.53
2023-12-30T05:17:38.198Z,101104.16
2023-12-30T05:20:40.920Z,101104.97
2023-12-30T05:23:43.571Z,101106.47
2023-12-30T05:26:47.531Z,101109.69
2023-12-30T05:29:50.273Z,101117.56
2023-12-30T05:32:53.032Z,101115.91
2023-12-30T05:35:55.696Z,101119.84
2023-12-30T05:38:58.330Z,101118.69
2023-12-30T05:42:02.256Z,101126.50
2023-12-30T05:45:05.478Z,101122.09
2023-12-30T05:48:08.649Z,101123.75
2023-12-30T05:51:11.548Z,101134.03
2023-12-30T05:54:14.141Z,101133.19
2023-12-30T05:57:18.994Z,101128.31
2023-12-30T06:00:21.963Z,101132.25
2023-12-30T06:03:24.551Z,101139.41
2023-12-30T06:06:29.517Z,101131.91
2023-12-30T06:09:33.842Z,101148.22
2023-12-30T06:12:37.841Z,101153.28
2023-12-30T06:15:40.482Z,101159.31
2023-12-30T06:18:43.146Z,101153.78
2023-12-30T06:21:45.800Z,101155.38
2023-12-30T06:24:48.463Z,101157.03
2023-12-30T06:27:52.455Z,101151.97
2023-12-30T06:30:55.299Z,101149.19
2023-12-30T06:33:58.191Z,101146.91
2023-12-30T06:37:00.940Z,101156.06
2023-12-30T06:40:03.921Z,101150.16
2023-12-30T06:43:08.008Z,101155.06
2023-12-30T06:46:10.642Z,101149.50
2023-12-30T06:49:13.471Z,101133.38
2023-12-30T06:52:16.250Z,101134.50
2023-12-30T06:55:23.449Z,101129.78
2023-12-30T06:58:32.853Z,101125.03
2023-12-30T07:01:40.280Z,101127.47
2023-12-30T07:04:42.991Z,101132.19
2023-12-30T07:07:45.590Z,101127.81
2023-12-30T07:10:48.659Z,101128.97
2023-12-30T07:13:52.647Z,101141.69
2023-12-30T07:16:55.294Z,101145.59
2023-12-30T07:20:00.229Z,101156.19
2023-12-30T07:23:03.558Z,101156.53
2023-12-30T07:26:06.337Z,101155.69
2023-12-30T07:29:10.354Z,101160.78
2023-12-30T07:32:12.962Z,101165.16
2023-12-30T07:35:15.763Z,101165.16
2023-12-30T07:38:18.444Z,101167.94
2023-12-30T07:41:21.102Z,101183.78
2023-12-30T07:44:25.021Z,101187.34
2023-12-30T07:47:27.962Z,101198.44
2023-12-30T07:50:30.579Z,101196.47
2023-12-30T07:53:33.641Z,101202.38
2023-12-30T07:56:36.317Z,101194.06
2023-12-30T07:59:40.343Z,101192.91
2023-12-30T08:02:43.074Z,101186.22
2023-12-30T08:05:45.834Z,101185.06
2023-12-30T08:08:48.581Z,101185.06
2023-12-30T08:11:59.183Z,101192.25
2023-12-30T08:15:09.053Z,101191.44
2023-12-30T08:18:12.260Z,101195.03
2023-12-30T08:21:15.007Z,101194.22
2023-12-30T08:24:19.307Z,101197.47
2023-12-30T08:27:21.899Z,101207.59
2023-12-30T08:30:25.887Z,101216.09
2023-12-30T08:33:28.670Z,101215.25
2023-12-30T08:36:31.534Z,101211.53
2023-12-30T08:39:34.277Z,101217.69
2023-12-30T08:42:37.079Z,101212.31
2023-12-30T08:45:41.111Z,101213.47
2023-12-30T08:48:43.801Z,101222.41
2023-12-30T08:51:46.488Z,101236.28
2023-12-30T08:54:49.169Z,101231.22
2023-12-30T08:57:51.822Z,101227.63
2023-12-30T09:00:55.969Z,101227.81
2023-12-30T09:03:58.771Z,101220.16
2023-12-30T09:07:01.559Z,101223.91
2023-12-30T09:10:04.543Z,101216.59
2023-12-30T09:13:07.726Z,101219.34
2023-12-30T09:16:12.046Z,101237.25
2023-12-30T09:19:14.851Z,101235.81
2023-12-30T09:22:17.560Z,101236.44
2023-12-30T09:25:20.296Z,101235.63
2023-12-30T09:28:23.034Z,101238.09
2023-12-30T09:31:28.203Z,101238.25
2023-12-30T09:34:38.985Z,101233.34
2023-12-30T09:37:46.539Z,101244.94
2023-12-30T09:40:49.125Z,101246.25
2023-12-30T09:43:51.743Z,101262.09
2023-12-30T09:46:56.001Z,101263.72
2023-12-30T09:49:58.620Z,101269.28
2023-12-30T09:53:01.510Z,101264.34
2023-12-30T09:56:04.434Z,101268.78
2023-12-30T09:59:07.060Z,101281.00
2023-12-30T10:02:11.408Z,101281.97
2023-12-30T10:05:14.206Z,101279.19
2023-12-30T10:08:16.936Z,101275.78
2023-12-30T10:11:19.608Z,101278.69
2023-12-30T10:14:22.321Z,101268.94
2023-12-30T10:17:26.422Z,101268.25
2023-12-30T10:20:29.074Z,101259.28
2023-12-30T10:23:32.234Z,101251.47
2023-12-30T10:26:34.874Z,101254.38
2023-12-30T10:29:46.831Z,101245.75
2023-12-30T10:32:55.780Z,101242.66
2023-12-30T10:35:58.521Z,101247.03
2023-12-30T10:39:01.195Z,101232.84
2023-12-30T10:42:03.807Z,101229.41
2023-12-30T10:45:07.186Z,101223.19
2023-12-30T10:48:11.222Z,101229.72
2023-12-30T10:51:15.043Z,101218.75
2023-12-30T10:54:21.804Z,101210.56
2023-12-30T10:57:24.476Z,101211.06
2023-12-30T11:00:27.068Z,101210.41
2023-12-30T11:03:32.567Z,101209.41
2023-12-30T11:06:38.954Z,101212.34
2023-12-30T11:09:41.583Z,101203.81
2023-12-30T11:12:44.255Z,101200.06
2023-12-30T11:15:46.890Z,101201.34
2023-12-30T11:18:51.730Z,101196.28
2023-12-30T11:21:55.369Z,101207.19
2023-12-30T11:24:58.049Z,101200.50
2023-12-30T11:28:13.678Z,101198.88
2023-12-30T11:31:16.282Z,101193.31
2023-12-30T11:34:20.426Z,101186.13
2023-12-30T11:37:23.330Z,101185.31
2023-12-30T11:40:26.736Z,101177.47
2023-12-30T11:43:29.448Z,101176.00
2023-12-30T11:46:32.201Z,101169.75
2023-12-30T11:49:37.169Z,101165.84
2023-12-30T11:52:39.917Z,101156.84
2023-12-30T11:55:42.650Z,101158.00
2023-12-30T11:58:45.366Z,101147.69
2023-12-30T12:01:48.748Z,101141.34
2023-12-30T12:04:52.878Z,101124.66
2023-12-30T12:07:55.534Z,101129.53
2023-12-30T12:10:58.243Z,101120.88
2023-12-30T12:14:00.890Z,101115.00
2023-12-30T12:17:05.540Z,101116.25
2023-12-30T12:20:12.063Z,101111.53
2023-12-30T12:23:15.061Z,101114.31
2023-12-30T12:26:18.237Z,101113.16
2023-12-30T12:29:22.091Z,101110.16
2023-12-30T12:32:26.633Z,101105.59
2023-12-30T12:35:31.866Z,101104.22
2023-12-30T12:38:34.528Z,101099.50
2023-12-30T12:41:37.547Z,101098.53
2023-12-30T12:44:40.143Z,101088.22
2023-12-30T12:47:42.936Z,101071.56
2023-12-30T12:50:46.956Z,101071.56
2023-12-30T12:53:49.976Z,101071.06
2023-12-30T12:56:52.624Z,101060.44
2023-12-30T12:59:55.222Z,101056.50
2023-12-30T13:02:59.650Z,101056.63
2023-12-30T13:06:13.246Z,101040.78
2023-12-30T13:09:35.531Z,101046.34
2023-12-30T13:12:38.630Z,101051.91
2023-12-30T13:15:41.440Z,101045.41
2023-12-30T13:18:44.177Z,101041.47
2023-12-30T13:21:49.505Z,101043.09
2023-12-30T13:24:52.679Z,101033.63
2023-12-30T13:27:55.397Z,101026.44
2023-12-30T13:30:58.709Z,101024.59
2023-12-30T13:34:01.615Z,101016.25
2023-12-30T13:37:07.241Z,101011.41
2023-12-30T13:40:14.816Z,101002.69
2023-12-30T13:43:17.614Z,101000.28
2023-12-30T13:46:35.153Z,100996.22
2023-12-30T13:49:59.592Z,100997.03
2023-12-30T13:53:04.524Z,100994.72
2023-12-30T13:56:08.036Z,100989.16
2023-12-30T13:59:13.389Z,100985.22
2023-12-30T14:02:19.015Z,100979.66
2023-12-30T14:05:29.562Z,100982.44
2023-12-30T14:08:37.908Z,100962.97
2023-12-30T14:11:47.740Z,100964.63
2023-12-30T14:14:54.606Z,100955.59
2023-12-30T14:17:57.362Z,100957.56
2023-12-30T14:21:00.050Z,100952.34
2023-12-30T14:24:04.155Z,100951.19
2023-12-30T14:27:06.821Z,100946.47
2023-12-30T14:30:12.979Z,100945.66
2023-12-30T14:33:15.910Z,100952.03
2023-12-30T14:36:18.609Z,100947.38
2023-12-30T14:39:22.931Z,100944.28
2023-12-30T14:42:25.815Z,100941.00
2023-12-30T14:45:28.421Z,100937.56
2023-12-30T14:48:31.041Z,100936.28
2023-12-30T14:51:33.655Z,100939.06
2023-12-30T14:54:39.002Z,100938.72
2023-12-30T14:57:42.178Z,100939.19
2023-12-30T15:00:45.076Z,100938.00
2023-12-30T15:03:47.790Z,100932.00
2023-12-30T15:06:50.917Z,100935.22
2023-12-30T15:09:54.848Z,100927.72
2023-12-30T15:12:57.469Z,100924.59
2023-12-30T15:16:00.203Z,100916.25
2023-12-30T15:19:03.028Z,100917.56
2023-12-30T15:22:06.325Z,100915.94
2023-12-30T15:25:12.397Z,100919.97
2023-12-30T15:28:15.056Z,100918.81
2023-12-30T15:31:17.906Z,100905.41
2023-12-30T15:34:20.685Z,100909.00
2023-12-30T15:37:24.147Z,100905.06
2023-12-30T15:40:28.318Z,100905.50
2023-12-30T15:43:32.803Z,100901.91
2023-12-30T15:46:36.795Z,100903.53
2023-12-30T15:49:41.582Z,100895.69
2023-12-30T15:52:44.559Z,100891.75
2023-12-30T15:55:49.403Z,100896.63
2023-12-30T15:58:52.565Z,100906.13
2023-12-30T16:01:55.325Z,100883.41
2023-12-30T16:04:57.969Z,100883.88
2023-12-30T16:08:00.648Z,100879.94
2023-12-30T16:11:04.887Z,100876.03
2023-12-30T16:14:10.909Z,100881.56
2023-12-30T16:17:14.205Z,100866.53
2023-12-30T16:20:16.854Z,100872.91
2023-12-30T16:23:19.501Z,100868.16
2023-12-30T16:26:23.857Z,100872.91
2023-12-30T16:29:26.516Z,100864.22
2023-12-30T16:32:29.379Z,100875.34
2023-12-30T16:35:32.110Z,100869.78
2023-12-30T16:38:34.698Z,100857.03
2023-12-30T16:41:38.686Z,100857.03
2023-12-30T16:44:41.861Z,100859.47
2023-12-30T16:47:44.634Z,100865.84
2023-12-30T16:50:47.792Z,100888.75
2023-12-30T16:53:50.403Z,100870.94
2023-12-30T16:56:54.332Z,100859.81
2023-12-30T16:59:56.908Z,100861.44
2023-12-30T17:02:59.782Z,100849.94
2023-12-30T17:06:03.257Z,100859.09
2023-12-30T17:09:06.460Z,100837.25
2023-12-30T17:12:10.718Z,100827.59
2023-12-30T17:15:15.228Z,100829.22
2023-12-30T17:18:17.837Z,100831.53
2023-12-30T17:21:20.440Z,100832.00
2023-12-30T17:24:23.102Z,100815.34
2023-12-30T17:27:27.108Z,100813.81
2023-12-30T17:30:30.016Z,100800.72
2023-12-30T17:33:32.689Z,100806.28
2023-12-30T17:36:35.299Z,100800.72
2023-12-30T17:39:37.898Z,100793.09
2023-12-30T17:42:41.809Z,100787.88
2023-12-30T17:45:44.570Z,100782.31
2023-12-30T17:48:47.236Z,100782.66
2023-12-30T17:51:49.812Z,100784.19
2023-12-30T17:54:52.406Z,100792.53
2023-12-30T17:57:56.327Z,100775.00
2023-12-30T18:00:58.960Z,100773.38
2023-12-30T18:04:02.231Z,100769.44
2023-12-30T18:07:05.296Z,100761.09
2023-12-30T18:10:08.828Z,100755.22
2023-12-30T18:13:13.061Z,100751.66
2023-12-30T18:16:15.788Z,100737.75
2023-12-30T18:19:18.717Z,100732.19
2023-12-30T18:22:21.370Z,100736.69
2023-12-30T18:25:24.164Z,100725.66
2023-12-30T18:28:28.221Z,100726.13
2023-12-30T18:31:32.343Z,100730.06
2023-12-30T18:34:36.321Z,100731.69
2023-12-30T18:37:39.156Z,100722.06
2023-12-30T18:40:43.465Z,100714.78
2023-12-30T18:43:47.603Z,100721.06
2023-12-30T18:46:50.763Z,100716.31
2023-12-30T18:49:53.466Z,100729.84
2023-12-30T18:52:57.652Z,100725.44
2023-12-30T18:56:04.246Z,100722.66
2023-12-30T18:59:08.259Z,100724.28
2023-12-30T19:02:10.989Z,100719.53
2023-12-30T19:05:14.099Z,100722.78
2023-12-30T19:08:16.782Z,100713.72
2023-12-30T19:11:20.015Z,100715.72
2023-12-30T19:14:24.703Z,100696.63
2023-12-30T19:17:28.178Z,100703.00
2023-12-30T19:20:30.974Z,100700.56
2023-12-30T19:23:35.974Z,100690.13
2023-12-30T19:26:38.620Z,100686.06
2023-12-30T19:29:42.601Z,100663.00
2023-12-30T19:32:45.253Z,100650.25
2023-12-30T19:35:48.370Z,100650.59
2023-12-30T19:38:51.428Z,100642.66
2023-12-30T19:41:54.016Z,100640.66
2023-12-30T19:44:58.238Z,100636.72
2023-12-30T19:48:01.356Z,100634.41
2023-12-30T19:51:05.481Z,100627.69
2023-12-30T19:54:08.197Z,100631.31
2023-12-30T19:57:11.368Z,100624.22
2023-12-30T20:00:16.058Z,100617.03
2023-12-30T20:03:19.233Z,100612.28
2023-12-30T20:06:21.886Z,100610.78
2023-12-30T20:09:24.575Z,100595.72
2023-12-30T20:12:29.069Z,100579.88
2023-12-30T20:15:33.000Z,100579.88
2023-12-30T20:18:36.225Z,100600.13
2023-12-30T20:21:39.515Z,100598.16
2023-12-30T20:24:42.102Z,100604.53
2023-12-30T20:27:44.727Z,100579.16
2023-12-30T20:30:48.700Z,100568.84
2023-12-30T20:33:51.473Z,100566.53
2023-12-30T20:36:54.136Z,100572.88
2023-12-30T20:39:56.727Z,100565.72
2023-12-30T20:43:00.174Z,100548.22
2023-12-30T20:46:08.858Z,100549.84
2023-12-30T20:49:11.594Z,100537.91
2023-12-30T20:52:14.686Z,100533.84
2023-12-30T20:55:17.443Z,100526.69
2023-12-30T20:58:20.235Z,100526.69
2023-12-30T21:01:24.309Z,100519.97
2023-12-30T21:04:27.084Z,100506.88
2023-12-30T21:07:29.733Z,100496.56
2023-12-30T21:10:32.406Z,100497.72
2023-12-30T21:13:35.042Z,100499.00
2023-12-30T21:16:39.096Z,100499.81
2023-12-30T21:19:41.949Z,100496.66
2023-12-30T21:22:44.619Z,100487.94
2023-12-30T21:25:50.186Z,100481.69
2023-12-30T21:28:52.933Z,100461.88
2023-12-30T21:31:56.980Z,100468.25
2023-12-30T21:34:59.683Z,100470.31
2023-12-30T21:38:02.714Z,100456.41
2023-12-30T21:41:06.088Z,100444.59
2023-12-30T21:44:08.686Z,100443.84
2023-12-30T21:47:12.681Z,100435.97
2023-12-30T21:50:15.471Z,100439.91
2023-12-30T21:53:18.155Z,100429.59
2023-12-30T21:56:20.773Z,100434.81
2023-12-30T21:59:23.401Z,100415.34
2023-12-30T22:02:27.550Z,100406.53
2023-12-30T22:05:30.478Z,100426.34
2023-12-30T22:08:33.102Z,100407.25
2023-12-30T22:11:35.735Z,100407.97
2023-12-30T22:14:39.451Z,100404.75
2023-12-30T22:17:43.431Z,100402.34
2023-12-30T22:20:46.045Z,100398.75
2023-12-30T22:23:49.082Z,100398.28
2023-12-30T22:26:51.731Z,100403.03
2023-12-30T22:29:54.323Z,100399.44
2023-12-30T22:32:58.406Z,100403.31
2023-12-30T22:36:01.551Z,100386.19
2023-12-30T22:39:04.150Z,100385.38
2023-12-30T22:42:06.978Z,100382.16
2023-12-30T22:45:10.270Z,100380.88
2023-12-30T22:48:14.835Z,100386.00
2023-12-30T22:51:17.506Z,100372.44
2023-12-30T22:54:20.103Z,100376.41
2023-12-30T22:57:22.727Z,100354.84
2023-12-30T23:00:28.195Z,100359.25
2023-12-30T23:03:32.138Z,100350.91
2023-12-30T23:06:34.795Z,100343.88
2023-12-30T23:09:37.919Z,100344.66
2023-12-30T23:12:40.549Z,100342.31
2023-12-30T23:15:43.222Z,100347.19
2023-12-30T23:18:47.311Z,100322.59
2023-12-30T23:21:50.101Z,100303.13
2023-12-30T23:24:52.751Z,100304.03
2023-12-30T23:27:55.349Z,100296.88
2023-12-30T23:30:58.003Z,100284.59
2023-12-30T23:34:02.652Z,100282.22
2023-12-30T23:37:05.828Z,100275.50
2023-12-30T23:40:10.162Z,100258.47
2023-12-30T23:43:12.929Z,100251.31
2023-12-30T23:46:15.570Z,100241.72
2023-12-30T23:49:19.663Z,100245.66
2023-12-30T23:52:22.383Z,100233.38
2023-12-30T23:55:25.057Z,100232.19
2023-12-30T23:58:27.757Z,100225.03
